Meridian, Oklahoma
Current Conditions -  °F | °C
As of 11:53 AM on Thursday 29 Jan 2015 (Local Time) from KGOK Reporting Station
Clear Clear  
Wind Chill: 44°   Ceiling: Unl
Heat Index: 49°   Visibility: 10mi
Dew Point: 30°   Wind: 13mph
Humidity: 48%   Direction: 360°N
Pressure: 30.43"   Gusts: 25mph
Location:  35.84°N, 97.25°W
Report Text: KGOK 291753Z AUTO 36011G22KT 10SM CLR 09/M01 A3043 RMK AO2 SLP309 T00941011 10106 20078 50020
Loading
Personal Weather Stations






























Interactive Weather Map New forecast layout! Learn more

10-Day Weather Forecast

Advertisements
Track Severe Weather on mobile